Time;durP1;ratioP1;P1;durP2;ratioP2;P2;SDS_P1;SDS_P2;PMS_P1;PMS_P2;Temp;Humidity;BMP_temperature;BMP_pressure;BME280_temperature;BME280_humidity;BME280_pressure;Samples;Min_cycle;Max_cycle;Signal;HPM_P1;HPM_P2
2023/06/05 00:01:21;;;;;;;0.70;0.70;;;;;;;22.43;38.19;101099.44;4537708;28;20401;-61
2023/06/05 00:03:33;;;;;;;0.90;0.77;;;;;;;22.56;38.22;101113.44;4557120;28;20102;-61
2023/06/05 00:05:44;;;;;;;1.50;0.90;;;;;;;22.54;38.50;101115.84;4554010;28;20056;-61
2023/06/05 00:07:54;;;;;;;1.55;0.82;;;;;;;22.54;38.30;101117.88;4558465;28;20453;-61
2023/06/05 00:10:06;;;;;;;1.08;0.88;;;;;;;22.55;38.50;101129.00;4555423;28;20036;-61
2023/06/05 00:12:17;;;;;;;1.13;0.80;;;;;;;22.54;38.93;101110.09;4557070;28;20266;-61
2023/06/05 00:14:27;;;;;;;1.00;0.80;;;;;;;22.54;38.63;101120.75;4558155;28;20508;-61
2023/06/05 00:16:38;;;;;;;1.08;0.80;;;;;;;22.54;38.47;101118.72;4556990;28;20044;-61
2023/06/05 00:18:48;;;;;;;1.65;0.85;;;;;;;22.42;38.46;101103.53;4540743;28;20037;-61
2023/06/05 00:20:59;;;;;;;1.05;0.75;;;;;;;22.49;38.47;101113.19;4538634;28;20041;-61
2023/06/05 00:23:13;;;;;;;0.90;0.77;;;;;;;22.48;38.56;101110.69;4556187;28;20040;-61
2023/06/05 00:25:23;;;;;;;0.82;0.82;;;;;;;22.52;38.29;101112.50;4557343;28;20033;-61
2023/06/05 00:27:34;;;;;;;1.63;0.80;;;;;;;22.53;38.67;101121.97;4555522;28;20814;-64
2023/06/05 00:29:45;;;;;;;0.80;0.80;;;;;;;22.53;38.72;101119.94;4544127;28;20029;-61
2023/06/05 00:31:55;;;;;;;1.20;0.80;;;;;;;22.49;38.29;101113.19;4556639;28;20112;-61
2023/06/05 00:34:06;;;;;;;1.17;0.90;;;;;;;22.52;38.31;101123.16;4539580;28;20120;-61
2023/06/05 00:36:18;;;;;;;0.70;0.70;;;;;;;22.39;38.46;101107.97;4554522;28;20386;-61
2023/06/05 00:38:29;;;;;;;1.58;0.80;;;;;;;22.53;38.19;101121.97;4556474;28;20103;-61
2023/06/05 00:40:39;;;;;;;0.85;0.80;;;;;;;22.47;38.42;101114.78;4554517;28;20043;-62
2023/06/05 00:42:50;;;;;;;1.10;0.88;;;;;;;22.52;38.06;101115.38;4556947;28;20032;-61
2023/06/05 00:45:00;;;;;;;1.63;0.90;;;;;;;22.50;38.10;101114.03;4539856;28;20025;-61
2023/06/05 00:47:10;;;;;;;1.45;0.80;;;;;;;22.49;38.47;101112.34;4538254;28;20035;-61
2023/06/05 00:49:21;;;;;;;1.15;0.90;;;;;;;22.49;38.07;101118.09;4525809;28;20478;-61
2023/06/05 00:51:33;;;;;;;0.90;0.80;;;;;;;22.47;38.38;101109.03;4554274;28;20040;-61
2023/06/05 00:53:46;;;;;;;1.10;0.90;;;;;;;22.48;38.17;101099.19;4539409;28;20444;-61
2023/06/05 00:55:57;;;;;;;0.70;0.70;;;;;;;22.49;38.11;101115.22;4557538;28;20070;-61
2023/06/05 00:58:08;;;;;;;0.98;0.85;;;;;;;22.48;37.90;101110.69;4555289;28;20040;-61
2023/06/05 01:00:19;;;;;;;1.10;0.80;;;;;;;22.39;37.10;101101.41;4511106;28;20038;-61
2023/06/05 01:02:29;;;;;;;1.02;0.93;;;;;;;22.48;37.36;101117.28;4555425;28;20041;-61
2023/06/05 01:04:43;;;;;;;0.68;0.68;;;;;;;22.47;37.79;101115.59;4554845;28;20032;-61
2023/06/05 01:06:57;;;;;;;1.83;1.10;;;;;;;22.44;37.27;101113.47;4520698;28;20112;-61
2023/06/05 01:09:10;;;;;;;1.15;0.73;;;;;;;22.32;37.10;101092.56;4555547;28;20025;-61
2023/06/05 01:11:38;;;;;;;0.85;0.80;;;;;;;22.48;37.05;101110.69;4554342;28;20021;-61
2023/06/05 01:14:02;;;;;;;1.10;0.80;;;;;;;22.48;37.26;101110.69;4536735;28;20148;-61
2023/06/05 01:16:14;;;;;;;1.00;0.85;;;;;;;22.47;37.43;101111.91;4557302;28;20036;-60
2023/06/05 01:18:25;;;;;;;0.80;0.80;;;;;;;22.47;37.51;101109.84;4555966;28;20068;-62
2023/06/05 01:20:38;;;;;;;0.90;0.90;;;;;;;22.48;37.41;101110.69;4555324;28;20445;-61
2023/06/05 01:22:54;;;;;;;0.85;0.80;;;;;;;22.44;37.18;101104.00;4539375;28;20040;-61
2023/06/05 01:25:07;;;;;;;0.88;0.80;;;;;;;22.44;37.19;101104.81;4554689;28;20469;-61
2023/06/05 01:27:26;;;;;;;0.98;0.80;;;;;;;22.47;37.40;101114.78;4555274;28;20025;-61
2023/06/05 01:29:55;;;;;;;0.80;0.80;;;;;;;22.43;37.25;101103.16;4535798;28;20131;-61
2023/06/05 01:32:15;;;;;;;1.05;0.80;;;;;;;22.45;36.98;101117.19;4538604;28;20768;-61
2023/06/05 01:34:26;;;;;;;0.80;0.80;;;;;;;22.46;37.18;101104.47;4537506;28;20048;-61
2023/06/05 01:36:39;;;;;;;0.90;0.80;;;;;;;22.45;37.15;101105.69;4554469;28;20103;-60
2023/06/05 01:38:52;;;;;;;1.02;0.70;;;;;;;22.45;37.03;101111.44;4555926;28;20274;-61
2023/06/05 01:41:05;;;;;;;1.00;0.90;;;;;;;22.44;36.99;101099.06;4553617;28;20139;-60
2023/06/05 01:43:18;;;;;;;0.98;0.90;;;;;;;22.45;36.91;101099.91;4536051;28;20068;-61
2023/06/05 01:45:28;;;;;;;1.35;0.82;;;;;;;22.43;36.98;101103.16;4554784;28;20102;-61
2023/06/05 01:47:39;;;;;;;0.70;0.70;;;;;;;22.43;36.72;101099.44;4553503;28;20096;-62
2023/06/05 01:49:51;;;;;;;1.23;0.93;;;;;;;22.37;36.78;101080.78;4537766;28;20485;-61
2023/06/05 01:52:02;;;;;;;1.17;0.90;;;;;;;22.42;36.50;101089.16;4556317;28;20071;-62
2023/06/05 01:54:12;;;;;;;0.85;0.80;;;;;;;22.43;36.87;101099.44;4555198;28;20437;-61
2023/06/05 01:56:23;;;;;;;0.80;0.73;;;;;;;22.40;37.12;101092.41;4554358;28;20032;-61
2023/06/05 01:58:35;;;;;;;1.20;0.80;;;;;;;22.23;36.33;101068.88;4522948;28;20033;-61
2023/06/05 02:00:46;;;;;;;0.80;0.80;;;;;;;22.41;36.93;101098.97;4537589;28;20029;-61
2023/06/05 02:02:56;;;;;;;0.98;0.82;;;;;;;22.41;36.73;101087.47;4538574;28;20075;-61
2023/06/05 02:05:08;;;;;;;1.45;0.90;;;;;;;22.36;36.64;101079.94;4556144;28;20037;-61
2023/06/05 02:07:21;;;;;;;1.02;0.90;;;;;;;22.29;36.14;101076.88;4537774;28;20615;-61
2023/06/05 02:09:34;;;;;;;0.95;0.88;;;;;;;22.42;36.43;101092.84;4554906;28;20032;-61
2023/06/05 02:11:48;;;;;;;0.75;0.70;;;;;;;22.39;36.48;101089.91;4522299;28;20284;-61
2023/06/05 02:13:59;;;;;;;0.80;0.80;;;;;;;22.41;36.40;101087.47;4555304;28;20146;-61
2023/06/05 02:16:11;;;;;;;1.13;0.90;;;;;;;22.39;36.24;101095.66;4521852;28;20084;-61
2023/06/05 02:18:25;;;;;;;0.80;0.80;;;;;;;22.37;36.71;101089.41;4543349;28;20037;-61
2023/06/05 02:20:35;;;;;;;1.02;0.80;;;;;;;22.41;36.29;101096.09;4536808;28;20068;-61
2023/06/05 02:22:49;;;;;;;0.85;0.85;;;;;;;22.37;36.44;101080.78;4554502;28;20029;-61
2023/06/05 02:25:00;;;;;;;1.40;1.00;;;;;;;22.40;36.35;101089.53;4525338;28;20033;-61
2023/06/05 02:27:12;;;;;;;0.80;0.70;;;;;;;22.34;36.12;101078.66;4535894;28;20228;-61
2023/06/05 02:29:23;;;;;;;0.80;0.70;;;;;;;22.38;35.66;101093.94;4536124;28;20037;-61
2023/06/05 02:31:33;;;;;;;1.17;0.80;;;;;;;22.39;36.05;101095.66;4554101;28;20044;-61
2023/06/05 02:33:44;;;;;;;0.98;0.90;;;;;;;22.38;35.93;101093.94;4554412;28;20047;-61
2023/06/05 02:35:56;;;;;;;1.08;0.98;;;;;;;22.35;35.58;101083.19;4539023;28;20223;-61
2023/06/05 02:38:12;;;;;;;1.98;1.00;;;;;;;22.34;35.79;101090.16;4538380;28;20052;-61
2023/06/05 02:40:23;;;;;;;;;;;;;;;22.38;35.59;101091.94;4525817;28;20139;-61
2023/06/05 02:42:35;;;;;;;0.70;0.70;;;;;;;22.36;35.44;101091.44;4553578;28;21260;-61
2023/06/05 02:44:46;;;;;;;0.60;0.60;;;;;;;22.37;35.56;101090.25;4554088;28;20107;-61
2023/06/05 02:46:57;;;;;;;1.02;0.82;;;;;;;22.38;35.58;101082.44;4536416;28;20103;-61
2023/06/05 02:49:08;;;;;;;0.70;0.70;;;;;;;22.37;35.68;101092.28;4539647;28;20018;-61
2023/06/05 02:51:18;;;;;;;0.68;0.68;;;;;;;22.35;35.55;101095.53;4554016;28;20025;-61
2023/06/05 02:53:30;;;;;;;0.98;0.80;;;;;;;22.35;35.49;101080.31;4553770;28;20048;-61
2023/06/05 02:55:42;;;;;;;1.08;0.70;;;;;;;22.37;35.44;101089.41;4555608;28;20506;-61
2023/06/05 02:57:57;;;;;;;0.95;0.70;;;;;;;22.35;35.15;101086.06;4538281;28;20526;-61
2023/06/05 03:00:16;;;;;;;0.70;0.70;;;;;;;22.24;35.17;101057.00;4522644;28;20604;-61
2023/06/05 03:02:30;;;;;;;0.82;0.75;;;;;;;22.33;35.17;101072.06;4535779;28;20025;-61
2023/06/05 03:04:42;;;;;;;0.82;0.77;;;;;;;22.34;35.27;101082.38;4553366;28;20113;-61
2023/06/05 03:06:56;;;;;;;0.85;0.70;;;;;;;22.35;35.02;101071.69;4537444;28;20037;-61
2023/06/05 03:09:07;;;;;;;0.85;0.73;;;;;;;22.31;35.39;101067.88;4526864;28;20520;-61
2023/06/05 03:11:18;;;;;;;1.05;0.80;;;;;;;22.32;35.31;101061.75;4534233;28;20033;-62
2023/06/05 03:13:29;;;;;;;0.70;0.70;;;;;;;22.32;34.90;101073.28;4535172;28;20048;-61
2023/06/05 03:15:40;;;;;;;0.93;0.70;;;;;;;22.30;35.21;101067.03;4554660;28;20032;-61
2023/06/05 03:17:53;;;;;;;0.88;0.70;;;;;;;22.32;34.93;101067.53;4523376;28;20077;-61
2023/06/05 03:20:09;;;;;;;0.77;0.70;;;;;;;22.34;35.01;101075.78;4540215;28;20048;-61
2023/06/05 03:22:20;;;;;;;0.80;0.80;;;;;;;22.31;34.80;101067.88;4538936;28;20706;-61
2023/06/05 03:24:31;;;;;;;0.60;0.60;;;;;;;22.31;35.20;101067.88;4541092;28;20542;-61
2023/06/05 03:26:47;;;;;;;0.70;0.65;;;;;;;22.32;35.10;101064.63;4556803;28;20574;-61
2023/06/05 03:29:01;;;;;;;0.93;0.70;;;;;;;22.28;34.96;101060.81;4527557;28;20034;-61
2023/06/05 03:31:14;;;;;;;0.75;0.70;;;;;;;22.32;34.86;101073.28;4555519;28;20025;-61
2023/06/05 03:33:28;;;;;;;1.17;0.70;;;;;;;22.30;34.99;101063.31;4539265;28;20721;-61
2023/06/05 03:35:39;;;;;;;0.80;0.80;;;;;;;22.30;35.01;101064.16;4539578;28;20034;-61
2023/06/05 03:37:50;;;;;;;0.70;0.70;;;;;;;22.31;35.04;101065.00;4522149;28;20713;-61
2023/06/05 03:40:01;;;;;;;1.13;0.80;;;;;;;22.31;34.82;101065.81;4536391;28;20091;-61
2023/06/05 03:42:11;;;;;;;0.70;0.70;;;;;;;22.29;35.12;101061.66;4540121;28;20508;-61
2023/06/05 03:44:22;;;;;;;0.93;0.70;;;;;;;22.31;35.26;101065.00;4540398;28;20527;-61
2023/06/05 03:46:33;;;;;;;0.88;0.70;;;;;;;22.32;34.80;101066.66;4539006;28;20048;-61
2023/06/05 03:48:48;;;;;;;1.48;0.80;;;;;;;22.31;35.20;101068.69;4539999;28;20024;-61
2023/06/05 03:51:00;;;;;;;1.98;0.70;;;;;;;22.28;35.22;101065.75;4531538;23;20072;-62
2023/06/05 03:53:13;;;;;;;1.20;0.60;;;;;;;22.28;35.33;101060.81;4512289;28;20081;-61
2023/06/05 03:55:23;;;;;;;0.90;0.70;;;;;;;22.30;35.26;101077.69;4509823;28;20148;-61
2023/06/05 03:57:34;;;;;;;0.77;0.77;;;;;;;22.29;35.34;101064.53;4511038;28;20458;-61
2023/06/05 03:59:45;;;;;;;0.85;0.63;;;;;;;22.27;35.14;101073.53;4525621;28;20091;-61
2023/06/05 04:01:56;;;;;;;0.82;0.70;;;;;;;22.30;35.08;101086.31;4517154;28;20036;-61
2023/06/05 04:04:08;;;;;;;0.88;0.70;;;;;;;22.15;35.12;101057.16;4502759;28;20045;-61
2023/06/05 04:06:19;;;;;;;0.60;0.60;;;;;;;22.27;35.11;101075.56;4508108;28;20620;-61
2023/06/05 04:08:29;;;;;;;0.80;0.80;;;;;;;22.28;35.57;101080.13;4517045;28;20109;-61
2023/06/05 04:10:40;;;;;;;0.70;0.70;;;;;;;22.29;35.50;101084.66;4523769;28;20077;-61
2023/06/05 04:12:50;;;;;;;0.60;0.60;;;;;;;22.27;35.69;101075.56;4523092;28;20535;-61
2023/06/05 04:15:02;;;;;;;1.08;0.60;;;;;;;22.15;35.87;101057.16;4510591;28;20960;-61
2023/06/05 04:17:13;;;;;;;0.70;0.70;;;;;;;22.27;35.93;101087.91;4525664;28;20153;-61
2023/06/05 04:19:24;;;;;;;0.82;0.60;;;;;;;22.28;35.66;101092.44;4506874;28;20183;-61
2023/06/05 04:21:38;;;;;;;0.82;0.68;;;;;;;22.26;35.59;101092.00;4517864;28;20756;-61
2023/06/05 04:23:49;;;;;;;0.60;0.60;;;;;;;22.28;35.64;101091.63;4517574;28;20037;-62
2023/06/05 04:26:00;;;;;;;0.60;0.60;;;;;;;22.26;36.21;101091.16;4516494;28;20037;-61
2023/06/05 04:28:11;;;;;;;0.75;0.75;;;;;;;22.27;36.05;101098.56;4516317;28;20714;-61
2023/06/05 04:30:22;;;;;;;0.80;0.80;;;;;;;22.27;35.89;101095.69;4492719;28;20201;-61
2023/06/05 04:32:39;;;;;;;0.80;0.70;;;;;;;22.27;35.82;101087.06;4507598;28;20041;-61
2023/06/05 04:34:52;;;;;;;1.60;0.70;;;;;;;22.25;35.94;101084.56;4501773;28;20048;-61
2023/06/05 04:37:03;;;;;;;1.13;0.70;;;;;;;22.21;36.60;101084.44;4507731;28;20638;-61
2023/06/05 04:39:14;;;;;;;1.15;0.70;;;;;;;22.28;36.18;101097.38;4527740;28;21298;-61
2023/06/05 04:41:25;;;;;;;1.13;0.80;;;;;;;22.27;36.76;101084.19;4508281;28;20030;-60
2023/06/05 04:43:36;;;;;;;0.95;0.70;;;;;;;22.26;36.58;101088.28;4513102;28;20079;-61
2023/06/05 04:45:47;;;;;;;0.70;0.70;;;;;;;22.27;36.83;101087.06;4511249;28;20073;-61
2023/06/05 04:47:58;;;;;;;0.82;0.70;;;;;;;22.23;36.71;101080.38;4524324;28;20025;-61
2023/06/05 04:50:09;;;;;;;1.33;0.70;;;;;;;22.12;36.51;101057.91;4516021;28;20037;-61
2023/06/05 04:52:23;;;;;;;0.65;0.65;;;;;;;22.25;37.02;101084.56;4507449;28;20034;-61
2023/06/05 04:54:34;;;;;;;0.73;0.70;;;;;;;22.24;36.66;101077.16;4508250;28;20037;-61
2023/06/05 04:56:45;;;;;;;0.90;0.70;;;;;;;22.23;36.76;101082.03;4508286;28;20475;-61
2023/06/05 04:58:56;;;;;;;1.02;0.70;;;;;;;22.19;37.13;101075.38;4510090;28;20152;-61
2023/06/05 05:01:07;;;;;;;1.13;0.80;;;;;;;22.26;37.24;101085.41;4510595;28;20116;-61
2023/06/05 05:03:21;;;;;;;0.70;0.70;;;;;;;22.27;37.51;101084.19;4522243;28;20171;-63
2023/06/05 05:05:32;;;;;;;0.70;0.70;;;;;;;22.21;37.64;101078.69;4509649;28;20120;-61
2023/06/05 05:07:43;;;;;;;0.68;0.68;;;;;;;22.21;37.49;101078.69;4507111;28;20636;-62
2023/06/05 05:09:55;;;;;;;1.02;0.90;;;;;;;22.25;37.80;101092.38;4517551;28;20141;-61
2023/06/05 05:12:07;;;;;;;1.02;0.80;;;;;;;22.26;37.87;101091.16;4516526;28;20106;-61
2023/06/05 05:14:17;;;;;;;0.80;0.80;;;;;;;22.20;37.78;101082.78;4516566;28;20037;-61
2023/06/05 05:16:29;;;;;;;1.15;0.90;;;;;;;22.21;38.02;101090.19;4525540;28;20037;-61
2023/06/05 05:18:42;;;;;;;2.25;0.73;;;;;;;22.19;38.87;101092.63;4512246;28;20022;-61
2023/06/05 05:20:53;;;;;;;1.02;0.80;;;;;;;22.23;38.90;101097.63;4525291;28;20563;-61
2023/06/05 05:23:07;;;;;;;1.92;0.90;;;;;;;22.21;38.57;101090.19;4512119;28;20088;-61
2023/06/05 05:25:17;;;;;;;0.88;0.70;;;;;;;22.20;38.83;101091.41;4509769;28;20043;-61
2023/06/05 05:27:28;;;;;;;1.10;0.90;;;;;;;22.22;38.52;101096.78;4510063;28;20091;-61
2023/06/05 05:29:40;;;;;;;1.08;0.80;;;;;;;22.10;38.47;101070.97;4505759;28;20600;-60
2023/06/05 05:31:51;;;;;;;1.00;0.68;;;;;;;22.21;38.60;101093.06;4523871;28;20395;-61
2023/06/05 05:34:02;;;;;;;2.03;0.85;;;;;;;22.25;38.69;101103.88;4524683;28;20565;-61
2023/06/05 05:36:14;;;;;;;1.50;1.00;;;;;;;22.22;38.36;101099.66;4506234;28;20046;-61
2023/06/05 05:38:25;;;;;;;0.73;0.73;;;;;;;22.23;38.65;101105.06;4525908;28;20029;-62
2023/06/05 05:40:35;;;;;;;0.80;0.80;;;;;;;22.20;38.42;101093.44;4524536;28;20544;-62
2023/06/05 05:42:45;;;;;;;1.67;0.95;;;;;;;22.21;38.18;101095.94;4510407;28;20037;-62
2023/06/05 05:44:56;;;;;;;0.88;0.70;;;;;;;22.20;38.95;101102.91;4526037;28;20038;-63
2023/06/05 05:47:06;;;;;;;1.10;1.00;;;;;;;22.21;38.97;101095.94;4525598;28;20036;-63
2023/06/05 05:49:17;;;;;;;1.20;1.00;;;;;;;22.23;39.50;101094.75;4525618;28;20053;-62
2023/06/05 05:51:27;;;;;;;1.00;0.90;;;;;;;22.22;38.82;101099.66;4527374;28;20107;-62
2023/06/05 05:53:38;;;;;;;0.93;0.88;;;;;;;22.21;39.48;101093.06;4508341;28;20532;-64
2023/06/05 05:55:48;;;;;;;1.33;0.90;;;;;;;22.21;39.57;101101.69;4526178;28;20044;-63
2023/06/05 05:57:59;;;;;;;1.33;1.10;;;;;;;22.20;39.52;101097.16;4523910;28;20042;-62
2023/06/05 06:00:12;;;;;;;1.00;0.90;;;;;;;22.20;39.18;101104.94;4523179;28;20056;-63
2023/06/05 06:02:22;;;;;;;1.20;1.00;;;;;;;22.19;39.03;101100.41;4525163;28;20164;-62
2023/06/05 06:04:33;;;;;;;1.15;0.93;;;;;;;22.19;39.51;101107.00;4525432;28;20033;-63
2023/06/05 06:06:44;;;;;;;1.02;0.90;;;;;;;22.18;39.78;101102.44;4525225;28;20065;-62
2023/06/05 06:08:54;;;;;;;1.33;0.90;;;;;;;22.20;39.56;101100.03;4524896;28;20034;-62
2023/06/05 06:11:06;;;;;;;1.25;1.02;;;;;;;22.20;39.68;101105.78;4524479;28;20494;-62
2023/06/05 06:13:16;;;;;;;1.13;0.90;;;;;;;22.19;40.05;101109.88;4525952;28;20652;-62
2023/06/05 06:15:27;;;;;;;1.25;1.00;;;;;;;22.16;40.33;101104.88;4518170;28;20043;-62
2023/06/05 06:17:38;;;;;;;1.20;1.00;;;;;;;22.22;39.72;101114.03;4525622;28;20040;-62
2023/06/05 06:19:48;;;;;;;1.58;0.90;;;;;;;22.23;40.13;101114.88;4524365;28;20087;-63
2023/06/05 06:21:59;;;;;;;0.43;0.43;;;;;;;22.20;41.41;101108.66;4524059;28;20328;-63
2023/06/05 06:24:09;;;;;;;0.90;0.70;;;;;;;22.21;42.82;101106.63;4524606;28;20045;-65
2023/06/05 06:26:21;;;;;;;0.60;0.50;;;;;;;22.19;43.25;101103.28;4524666;28;20672;-65
2023/06/05 06:28:32;;;;;;;0.65;0.65;;;;;;;22.20;43.19;101111.53;4525254;28;20611;-63
2023/06/05 06:30:43;;;;;;;0.80;0.77;;;;;;;22.20;42.64;101107.81;4525945;28;20040;-63
2023/06/05 06:32:58;;;;;;;0.60;0.60;;;;;;;22.20;42.77;101117.28;4524153;28;20068;-63
2023/06/05 06:35:08;;;;;;;0.82;0.57;;;;;;;22.18;43.03;101105.31;4524334;28;20068;-64
2023/06/05 06:37:19;;;;;;;0.80;0.70;;;;;;;22.20;43.24;101114.41;4524147;28;20714;-61
2023/06/05 06:39:31;;;;;;;0.70;0.70;;;;;;;22.20;43.34;101117.28;4525994;28;20135;-61
2023/06/05 06:41:42;;;;;;;0.90;0.80;;;;;;;22.16;43.44;101112.66;4507943;28;20156;-61
2023/06/05 06:43:52;;;;;;;0.70;0.70;;;;;;;22.19;42.98;101118.50;4515759;28;20022;-63
2023/06/05 06:46:03;;;;;;;0.70;0.70;;;;;;;22.19;43.17;101127.13;4497974;28;20216;-61
2023/06/05 06:48:13;;;;;;;0.85;0.70;;;;;;;22.19;42.46;101118.50;4524709;28;20148;-62
2023/06/05 06:50:24;;;;;;;0.80;0.70;;;;;;;22.14;42.82;101107.25;4523537;28;20045;-62
2023/06/05 06:52:34;;;;;;;0.80;0.80;;;;;;;22.16;42.72;101113.50;4526636;28;20037;-62
2023/06/05 06:54:45;;;;;;;0.73;0.70;;;;;;;22.23;43.08;101114.88;4528211;28;20648;-61
2023/06/05 06:56:56;;;;;;;0.80;0.80;;;;;;;22.18;42.67;101113.94;4526839;28;20033;-62
2023/06/05 06:59:14;;;;;;;0.90;0.80;;;;;;;22.22;42.43;101119.78;4519349;28;20034;-62
2023/06/05 07:01:25;;;;;;;1.05;0.82;;;;;;;22.21;42.88;101113.19;4526361;28;20035;-63
2023/06/05 07:03:35;;;;;;;1.00;0.80;;;;;;;22.20;42.57;101111.53;4526681;28;20052;-62
2023/06/05 07:05:46;;;;;;;1.13;0.93;;;;;;;22.23;42.62;101115.75;4528586;28;20033;-62
2023/06/05 07:08:00;;;;;;;1.10;1.00;;;;;;;22.19;41.65;101115.63;4527745;28;20648;-61
2023/06/05 07:10:11;;;;;;;1.00;0.90;;;;;;;22.19;41.58;101109.03;4527177;28;20025;-62
2023/06/05 07:12:22;;;;;;;1.08;0.90;;;;;;;22.21;40.99;101116.06;4527875;28;20620;-61
2023/06/05 07:14:35;;;;;;;1.70;1.08;;;;;;;22.18;41.88;101108.19;4527377;28;20041;-61
2023/06/05 07:16:46;;;;;;;1.10;0.90;;;;;;;22.21;41.53;101118.13;4528263;28;20103;-61
2023/06/05 07:18:56;;;;;;;1.10;0.85;;;;;;;22.20;42.01;101111.53;4510311;28;20668;-61
2023/06/05 07:21:07;;;;;;;1.10;0.95;;;;;;;22.21;41.48;101112.38;4528054;28;20453;-61
2023/06/05 07:23:17;;;;;;;1.05;0.80;;;;;;;22.16;41.20;101107.75;4510375;28;20073;-61
2023/06/05 07:25:28;;;;;;;1.02;0.90;;;;;;;22.20;40.84;101113.56;4527552;28;20034;-61
2023/06/05 07:27:40;;;;;;;1.17;0.90;;;;;;;22.19;41.15;101109.03;4525793;28;20493;-62
2023/06/05 07:29:53;;;;;;;0.70;0.70;;;;;;;22.16;41.21;101104.88;4526494;28;20033;-62
2023/06/05 07:32:07;;;;;;;1.00;0.90;;;;;;;22.20;41.45;101111.53;4526166;28;20041;-61
2023/06/05 07:34:18;;;;;;;1.00;0.95;;;;;;;22.19;42.42;101106.16;4525786;28;20129;-62
2023/06/05 07:36:29;;;;;;;1.20;0.90;;;;;;;22.23;42.37;101109.16;4519310;28;20037;-62
2023/06/05 07:38:40;;;;;;;1.10;0.90;;;;;;;22.22;42.63;101108.28;4526826;28;20042;-62
2023/06/05 07:40:51;;;;;;;1.00;0.90;;;;;;;22.21;41.91;101110.31;4510804;28;20129;-61
2023/06/05 07:43:01;;;;;;;1.25;0.90;;;;;;;22.21;42.31;101107.44;4526260;28;20036;-61
2023/06/05 07:45:12;;;;;;;1.00;0.90;;;;;;;22.21;42.19;101110.31;4511172;28;20041;-61
2023/06/05 07:47:22;;;;;;;1.00;0.90;;;;;;;22.17;42.40;101112.28;4525963;28;20033;-62
2023/06/05 07:49:33;;;;;;;1.05;0.95;;;;;;;22.20;42.15;101102.91;4526041;28;20037;-61
2023/06/05 07:51:46;;;;;;;0.98;0.90;;;;;;;22.22;41.12;101114.03;4526841;28;20060;-61
2023/06/05 07:53:56;;;;;;;1.65;1.02;;;;;;;22.23;41.66;101109.16;4525588;28;20647;-61
2023/06/05 07:56:07;;;;;;;1.10;1.00;;;;;;;22.21;41.82;101113.19;4511057;28;20119;-61
2023/06/05 07:58:18;;;;;;;1.30;1.00;;;;;;;22.22;42.31;101108.28;4526181;28;20037;-61
2023/06/05 08:00:28;;;;;;;1.63;1.10;;;;;;;22.23;42.10;101109.16;4525226;28;20141;-61
2023/06/05 08:02:40;;;;;;;1.35;0.93;;;;;;;22.19;41.93;101095.50;4517390;28;20031;-61
2023/06/05 08:04:51;;;;;;;1.23;1.00;;;;;;;22.06;42.48;101070.88;4506026;28;20121;-61
2023/06/05 08:07:02;;;;;;;1.05;0.90;;;;;;;22.23;41.78;101104.25;4525475;28;20021;-61
2023/06/05 08:09:12;;;;;;;1.55;1.00;;;;;;;22.23;42.21;101100.50;4517578;28;20546;-61
2023/06/05 08:11:23;;;;;;;2.03;1.20;;;;;;;22.22;42.23;101088.16;4527311;28;20140;-61
2023/06/05 08:13:33;;;;;;;1.20;1.10;;;;;;;22.22;42.21;101091.03;4527264;28;20045;-61
2023/06/05 08:15:43;;;;;;;1.15;1.00;;;;;;;22.01;41.95;101053.88;4511315;28;20405;-61
2023/06/05 08:17:54;;;;;;;1.25;1.00;;;;;;;22.23;41.82;101086.13;4526364;28;20095;-61
2023/06/05 08:20:05;;;;;;;1.75;1.08;;;;;;;22.21;42.42;101083.63;4527362;28;20028;-62
2023/06/05 08:22:15;;;;;;;0.77;0.70;;;;;;;22.18;41.22;101075.75;4526174;28;20040;-62
2023/06/05 08:24:28;;;;;;;0.85;0.80;;;;;;;22.23;41.82;101080.38;4525620;28;20040;-61
2023/06/05 08:26:38;;;;;;;1.30;0.80;;;;;;;22.23;41.12;101080.38;4525189;28;20122;-61
2023/06/05 08:28:49;;;;;;;2.22;1.10;;;;;;;22.25;41.18;101078.00;4527091;28;20331;-62
2023/06/05 08:31:00;;;;;;;1.00;0.90;;;;;;;22.17;41.28;101060.53;4525596;28;20116;-61
2023/06/05 08:33:10;;;;;;;0.80;0.80;;;;;;;22.16;40.74;101053.09;4526933;28;20050;-61
2023/06/05 08:35:20;;;;;;;1.08;0.85;;;;;;;22.22;41.37;101068.03;4524903;28;20152;-61
2023/06/05 08:37:31;;;;;;;1.00;0.90;;;;;;;22.23;40.54;101064.78;4525711;28;20061;-63
2023/06/05 08:39:41;;;;;;;1.83;0.80;;;;;;;22.10;40.05;101043.06;4509572;28;20040;-62
2023/06/05 08:41:54;;;;;;;0.90;0.90;;;;;;;22.19;40.21;101069.63;4517457;28;20152;-62
2023/06/05 08:44:05;;;;;;;1.50;0.90;;;;;;;22.21;41.02;101072.94;4526460;28;20025;-62
2023/06/05 08:46:15;;;;;;;1.00;0.85;;;;;;;22.12;41.29;101049.28;4525827;28;20033;-62
2023/06/05 08:48:27;;;;;;;0.90;0.90;;;;;;;22.24;42.63;101059.88;4525801;28;20362;-62
2023/06/05 08:50:39;;;;;;;1.40;1.02;;;;;;;22.21;41.95;101067.19;4525002;28;20029;-61
2023/06/05 08:52:51;;;;;;;0.80;0.80;;;;;;;22.21;41.08;101070.06;4526336;28;20041;-61
2023/06/05 08:55:04;;;;;;;1.15;0.80;;;;;;;22.23;41.63;101070.53;4510700;28;21255;-61
2023/06/05 08:57:15;;;;;;;1.33;1.00;;;;;;;22.25;40.91;101061.56;4525970;28;20041;-61
2023/06/05 08:59:26;;;;;;;1.13;0.70;;;;;;;22.23;41.26;101070.53;4525228;28;20036;-61
2023/06/05 09:01:37;;;;;;;2.33;1.00;;;;;;;22.23;40.91;101066.00;4523504;28;20881;-61
2023/06/05 09:03:47;;;;;;;0.95;0.85;;;;;;;22.26;40.66;101071.03;4525961;28;20041;-61
2023/06/05 09:05:58;;;;;;;1.02;0.93;;;;;;;22.23;40.89;101070.53;4526582;28;20384;-61
2023/06/05 09:08:08;;;;;;;1.02;0.85;;;;;;;22.21;40.38;101058.56;4524468;28;20075;-62
2023/06/05 09:10:23;;;;;;;0.98;0.90;;;;;;;22.26;41.50;101068.16;4526429;28;20037;-62
2023/06/05 09:12:56;;;;;;;0.85;0.85;;;;;;;22.17;41.69;101049.00;4525851;28;20039;-61
2023/06/05 09:15:24;;;;;;;1.17;0.70;;;;;;;22.26;41.87;101062.41;4515775;28;20050;-61
2023/06/05 09:17:35;;;;;;;0.85;0.75;;;;;;;22.24;42.01;101054.13;4525525;28;20022;-61
2023/06/05 09:19:47;;;;;;;1.13;0.88;;;;;;;22.20;41.78;101050.31;4525573;28;20072;-62
2023/06/05 09:21:57;;;;;;;0.90;0.80;;;;;;;22.22;41.40;101050.78;4525620;28;20033;-61
2023/06/05 09:24:19;;;;;;;1.38;0.80;;;;;;;22.26;40.89;101063.25;4526216;28;20046;-62
2023/06/05 09:26:53;;;;;;;0.80;0.80;;;;;;;22.26;40.15;101062.41;4524143;28;20033;-62
2023/06/05 09:29:05;;;;;;;0.70;0.70;;;;;;;22.23;39.45;101045.88;4526564;28;20704;-62
2023/06/05 09:31:16;;;;;;;0.90;0.75;;;;;;;22.27;39.93;101052.56;4523538;28;20088;-61
2023/06/05 09:33:29;;;;;;;0.88;0.75;;;;;;;22.04;41.01;101024.41;4524982;28;20129;-62
2023/06/05 09:35:39;;;;;;;1.00;0.70;;;;;;;22.26;40.32;101053.78;4525119;28;20122;-61
2023/06/05 09:37:50;;;;;;;0.60;0.60;;;;;;;22.27;38.90;101050.53;4525436;28;20095;-62
2023/06/05 09:40:01;;;;;;;0.75;0.75;;;;;;;22.21;39.59;101038.44;4524510;28;20092;-62
2023/06/05 09:42:11;;;;;;;1.10;0.82;;;;;;;22.13;39.43;101027.97;4525800;28;20092;-62
2023/06/05 09:44:23;;;;;;;1.23;0.68;;;;;;;22.27;39.40;101059.16;4525613;28;20040;-62
2023/06/05 09:46:33;;;;;;;1.27;0.70;;;;;;;22.28;38.43;101054.25;4525010;28;20064;-62
2023/06/05 09:48:53;;;;;;;0.80;0.80;;;;;;;22.26;37.68;101046.00;4525136;28;20045;-61
2023/06/05 09:51:11;;;;;;;1.20;0.80;;;;;;;22.27;37.97;101047.66;4524289;28;20084;-62
2023/06/05 09:53:22;;;;;;;0.77;0.77;;;;;;;22.28;38.72;101049.31;4523924;28;20622;-62
2023/06/05 09:55:33;;;;;;;0.70;0.70;;;;;;;22.20;38.05;101033.91;4498079;28;20089;-61
2023/06/05 09:57:45;;;;;;;0.70;0.70;;;;;;;22.22;38.32;101033.53;4526188;28;20133;-62
2023/06/05 09:59:59;;;;;;;0.80;0.70;;;;;;;22.28;39.46;101040.69;4525463;28;20029;-62
2023/06/05 10:02:09;;;;;;;0.98;0.80;;;;;;;22.26;39.06;101036.50;4524328;28;20115;-62
2023/06/05 10:04:23;;;;;;;1.23;0.80;;;;;;;22.27;38.61;101035.31;4523871;28;20053;-62
2023/06/05 10:06:35;;;;;;;0.98;0.85;;;;;;;22.28;40.53;101026.31;4524446;28;20544;-62
2023/06/05 10:08:48;;;;;;;0.90;0.68;;;;;;;22.28;39.22;101025.50;4510539;28;20045;-62
2023/06/05 10:11:00;;;;;;;0.93;0.90;;;;;;;22.22;38.09;101019.16;4516097;28;20045;-62
2023/06/05 10:13:11;;;;;;;0.70;0.70;;;;;;;22.25;38.71;101012.66;4524159;28;20041;-61